地図

経路データ

SID SEASON NUMBER BASIN SUBBASIN NAME ISO_TIME NATURE LAT LON WMO_WIND WMO_PRES WMO_AGENCY TRACK_TYPE DIST2LAND LANDFALL IFLAG USA_AGENCY USA_ATCF_ID USA_LAT USA_LON USA_RECORD USA_STATUS USA_WIND USA_PRES USA_SSHS USA_R34_NE USA_R34_SE USA_R34_SW USA_R34_NW USA_R50_NE USA_R50_SE USA_R50_SW USA_R50_NW USA_R64_NE USA_R64_SE USA_R64_SW USA_R64_NW USA_POCI USA_ROCI USA_RMW USA_EYE TOKYO_LAT TOKYO_LON TOKYO_GRADE TOKYO_WIND TOKYO_PRES TOKYO_R50_DIR TOKYO_R50_LONG TOKYO_R50_SHORT TOKYO_R30_DIR TOKYO_R30_LONG TOKYO_R30_SHORT TOKYO_LAND CMA_LAT CMA_LON CMA_CAT CMA_WIND CMA_PRES HKO_LAT HKO_LON HKO_CAT HKO_WIND HKO_PRES NEWDELHI_LAT NEWDELHI_LON NEWDELHI_GRADE NEWDELHI_WIND NEWDELHI_PRES NEWDELHI_CI NEWDELHI_DP NEWDELHI_POCI REUNION_LAT REUNION_LON REUNION_TYPE REUNION_WIND REUNION_PRES REUNION_TNUM REUNION_CI REUNION_RMW REUNION_R34_NE REUNION_R34_SE REUNION_R34_SW REUNION_R34_NW REUNION_R50_NE REUNION_R50_SE REUNION_R50_SW REUNION_R50_NW REUNION_R64_NE REUNION_R64_SE REUNION_R64_SW REUNION_R64_NW BOM_LAT BOM_LON BOM_TYPE BOM_WIND BOM_PRES BOM_TNUM BOM_CI BOM_RMW BOM_R34_NE BOM_R34_SE BOM_R34_SW BOM_R34_NW BOM_R50_NE BOM_R50_SE BOM_R50_SW BOM_R50_NW BOM_R64_NE BOM_R64_SE BOM_R64_SW BOM_R64_NW BOM_ROCI BOM_POCI BOM_EYE BOM_POS_METHOD BOM_PRES_METHOD NADI_LAT NADI_LON NADI_CAT NADI_WIND NADI_PRES WELLINGTON_LAT WELLINGTON_LON WELLINGTON_WIND WELLINGTON_PRES DS824_LAT DS824_LON DS824_STAGE DS824_WIND DS824_PRES TD9636_LAT TD9636_LON TD9636_STAGE TD9636_WIND TD9636_PRES TD9635_LAT TD9635_LON TD9635_WIND TD9635_PRES TD9635_ROCI NEUMANN_LAT NEUMANN_LON NEUMANN_CLASS NEUMANN_WIND NEUMANN_PRES MLC_LAT MLC_LON MLC_CLASS MLC_WIND MLC_PRES USA_GUST BOM_GUST BOM_GUST_PER REUNION_GUST REUNION_GUST_PER USA_SEAHGT USA_SEARAD_NE USA_SEARAD_SE USA_SEARAD_SW USA_SEARAD_NW STORM_SPEED STORM_DIR
1933129N16150 1933 13 WP MM NOT_NAMED 1933-05-09 10:00:00 NR 16.4000 150.000 main 2091 2087 __________O___ -1 16.4000 150.000 7 17 280
1933129N16150 1933 13 WP MM NOT_NAMED 1933-05-09 12:00:00 NR 16.4933 149.422 main 2095 2091 __________P___ -1 16.4933 149.422 7 17 280
1933129N16150 1933 13 WP MM NOT_NAMED 1933-05-09 15:00:00 NR 16.6343 148.552 main 2098 2098 __________P___ -1 16.6343 148.552 7 17 280
1933129N16150 1933 13 WP MM NOT_NAMED 1933-05-09 18:00:00 NR 16.7820 147.678 main 2117 2117 __________P___ -1 16.7820 147.678 7 17 280
1933129N16150 1933 13 WP MM NOT_NAMED 1933-05-09 21:00:00 NR 16.9426 146.796 main 2123 2103 __________P___ -1 16.9426 146.796 7 17 281
1933129N16150 1933 13 WP MM NOT_NAMED 1933-05-09 22:00:00 NR 17.0000 146.500 main 2103 2075 __________O___ -1 17.0000 146.500 7 17 282
1933129N16150 1933 13 WP MM NOT_NAMED 1933-05-10 00:00:00 NR 17.1228 145.905 main 2075 2019 __________P___ -1 17.1228 145.905 7 18 283
1933129N16150 1933 13 WP MM NOT_NAMED 1933-05-10 03:00:00 NR 17.3384 145.013 main 2019 1949 __________P___ -1 17.3384 145.013 7 18 286
1933129N16150 1933 13 WP MM NOT_NAMED 1933-05-10 06:00:00 NR 17.6108 144.133 main 1949 1875 __________P___ -1 17.6108 144.133 7 18 291
1933129N16150 1933 13 WP MM NOT_NAMED 1933-05-10 09:00:00 NR 17.9618 143.277 main 1875 1853 __________P___ -1 17.9618 143.277 7 18 294
1933129N16150 1933 13 WP MM NOT_NAMED 1933-05-10 10:00:00 NR 18.1000 143.000 main 1853 1795 __________O___ -1 18.1000 143.000 7 20 296
1933129N16150 1933 13 WP MM NOT_NAMED 1933-05-10 12:00:00 NR 18.4053 142.328 main 1795 1709 __________P___ -1 18.4053 142.328 7 21 298
1933129N16150 1933 13 WP MM NOT_NAMED 1933-05-10 15:00:00 NR 18.9382 141.341 main 1709 1611 __________P___ -1 18.9382 141.341 7 21 303
1933129N16150 1933 13 WP MM NOT_NAMED 1933-05-10 18:00:00 NR 19.5378 140.509 main 1611 1516 __________P___ -1 19.5378 140.509 7 18 314
1933129N16150 1933 13 WP MM NOT_NAMED 1933-05-10 21:00:00 NR 20.1803 139.982 main 1516 1492 __________P___ -1 20.1803 139.982 7 16 326
1933129N16150 1933 13 WP MM NOT_NAMED 1933-05-10 22:00:00 NR 20.4000 139.900 main 1492 1445 __________O___ -1 20.4000 139.900 7 14 355
1933129N16150 1933 13 WP MM NOT_NAMED 1933-05-11 00:00:00 NR 20.8597 139.925 main 1445 1389 __________P___ -1 20.8597 139.925 7 15 17
1933129N16150 1933 13 WP MM NOT_NAMED 1933-05-11 03:00:00 NR 21.5773 140.293 main 1389 1336 __________P___ -1 21.5773 140.293 7 17 34
1933129N16150 1933 13 WP MM NOT_NAMED 1933-05-11 06:00:00 NR 22.2802 140.939 main 1336 1306 __________P___ -1 22.2802 140.939 7 19 45
1933129N16150 1933 13 WP MM NOT_NAMED 1933-05-11 09:00:00 NR 22.9135 141.729 main 1306 1299 __________P___ -1 22.9135 141.729 7 19 50
1933129N16150 1933 13 WP MM NOT_NAMED 1933-05-11 10:00:00 NR 23.1000 142.000 main 1299 1288 __________O___ -1 23.1000 142.000 7 18 55
1933129N16150 1933 13 WP MM NOT_NAMED 1933-05-11 12:00:00 NR 23.4289 142.530 main 1293 1278 __________P___ -1 23.4289 142.530 7 17 58
1933129N16150 1933 13 WP MM NOT_NAMED 1933-05-11 15:00:00 NR 23.8284 143.295 main 1281 1262 __________P___ -1 23.8284 143.295 7 16 62
1933129N16150 1933 13 WP MM NOT_NAMED 1933-05-11 18:00:00 NR 24.1459 144.034 main 1268 1256 __________P___ -1 24.1459 144.034 7 15 66
1933129N16150 1933 13 WP MM NOT_NAMED 1933-05-11 21:00:00 NR 24.4151 144.759 main 1263 1256 __________P___ -1 24.4151 144.759 7 14 68
1933129N16150 1933 13 WP MM NOT_NAMED 1933-05-11 22:00:00 NR 24.5000 145.000 main 1260 __________O___ -1 24.5000 145.000 7 14 69

デジタル台風データ・検索

IBTrACS Databaseについて

本データベースは、米国NOAAが公開する1842年以降の世界の熱帯低気圧のベストトラックデータアーカイブInternational Best Track Archive for Climate Stewardship (IBTrACS)を、ウェブで閲覧しやすい形式に変換したものです。

最終更新日:2021-10-21